Time;durP1;ratioP1;P1;durP2;ratioP2;P2;SDS_P1;SDS_P2;PMS_P1;PMS_P2;Temp;Humidity;BMP_temperature;BMP_pressure;BME280_temperature;BME280_humidity;BME280_pressure;Samples;Min_cycle;Max_cycle;Signal;HPM_P1;HPM_P2
2022/12/13 00:00:13;;;;;;;;;;;1.50;75.40;;;;;;5075710;28;19943;-88
2022/12/13 00:02:42;;;;;;;;;;;1.40;75.70;;;;;;5075168;28;19953;-87
2022/12/13 00:05:08;;;;;;;;;;;1.40;75.90;;;;;;5076447;28;19941;-88
2022/12/13 00:07:34;;;;;;;;;;;1.30;75.80;;;;;;5075109;28;20343;-88
2022/12/13 00:09:59;;;;;;;;;;;1.40;75.90;;;;;;5057442;28;20473;-88
2022/12/13 00:12:25;;;;;;;;;;;1.50;75.90;;;;;;5055035;28;19946;-88
2022/12/13 00:14:50;;;;;;;;;;;1.70;75.40;;;;;;5056269;28;20415;-88
2022/12/13 00:17:16;;;;;;;;;;;1.80;75.00;;;;;;5056138;28;20385;-88
2022/12/13 00:19:41;;;;;;;;;;;1.90;74.80;;;;;;5060466;28;20355;-88
2022/12/13 00:22:07;;;;;;;;;;;2.00;74.40;;;;;;5087682;28;19977;-88
2022/12/13 00:24:32;;;;;;;;;;;2.00;74.30;;;;;;5094338;28;19946;-88
2022/12/13 00:26:58;;;;;;;;;;;2.00;74.20;;;;;;5087409;28;20051;-88
2022/12/13 00:29:24;;;;;;;;;;;2.10;74.20;;;;;;5059097;28;20390;-88
2022/12/13 00:31:50;;;;;;;;;;;2.10;74.10;;;;;;5096139;28;20036;-88
2022/12/13 00:34:15;;;;;;;;;;;2.00;74.10;;;;;;5082404;28;19983;-88
2022/12/13 00:36:41;;;;;;;;;;;1.80;75.20;;;;;;5075768;28;19963;-87
2022/12/13 00:39:06;;;;;;;;;;;1.70;75.20;;;;;;5082168;28;20318;-88
2022/12/13 00:41:33;;;;;;;;;;;1.60;75.60;;;;;;5077806;28;19948;-88
2022/12/13 00:43:59;;;;;;;;;;;1.60;75.60;;;;;;5077802;28;20458;-88
2022/12/13 00:46:25;;;;;;;;;;;1.70;75.90;;;;;;5095915;28;19978;-88
2022/12/13 00:48:53;;;;;;;;;;;1.70;75.90;;;;;;5092344;28;19948;-88
2022/12/13 00:51:19;;;;;;;;;;;1.80;75.80;;;;;;5075538;28;19961;-88
2022/12/13 00:53:44;;;;;;;;;;;1.90;75.20;;;;;;5076833;28;19971;-88
2022/12/13 00:56:11;;;;;;;;;;;2.10;74.80;;;;;;5095646;28;20014;-88
2022/12/13 00:58:37;;;;;;;;;;;2.20;74.40;;;;;;5094285;28;19960;-88
2022/12/13 01:01:07;;;;;;;;;;;2.30;73.70;;;;;;5095674;28;19936;-88
2022/12/13 01:03:33;;;;;;;;;;;2.30;73.40;;;;;;5087890;28;19951;-88
2022/12/13 01:05:58;;;;;;;;;;;2.20;73.70;;;;;;5075241;28;20388;-88
2022/12/13 01:08:24;;;;;;;;;;;2.10;74.30;;;;;;5074844;28;19937;-88
2022/12/13 01:10:50;;;;;;;;;;;2.00;75.10;;;;;;5095246;28;20448;-88
2022/12/13 01:13:15;;;;;;;;;;;2.00;76.80;;;;;;5095436;28;19948;-88
2022/12/13 01:15:41;;;;;;;;;;;2.10;75.70;;;;;;5095228;28;19937;-88
2022/12/13 01:18:07;;;;;;;;;;;2.20;74.50;;;;;;5095572;28;19942;-88
2022/12/13 01:20:33;;;;;;;;;;;2.00;74.40;;;;;;5078475;28;20395;-88
2022/12/13 01:22:58;;;;;;;;;;;1.90;75.30;;;;;;5074819;28;20070;-87
2022/12/13 01:25:24;;;;;;;;;;;1.80;75.80;;;;;;5089103;28;19948;-88
2022/12/13 01:27:49;;;;;;;;;;;1.70;76.10;;;;;;5083478;28;20467;-88
2022/12/13 01:30:15;;;;;;;;;;;1.70;76.20;;;;;;5090015;28;19947;-88
2022/12/13 01:32:40;;;;;;;;;;;1.70;76.70;;;;;;5095021;28;19946;-88
2022/12/13 01:35:06;;;;;;;;;;;1.70;76.70;;;;;;5094975;28;19980;-88
2022/12/13 01:37:32;;;;;;;;;;;1.80;76.90;;;;;;5095097;28;20053;-88
2022/12/13 01:39:57;;;;;;;;;;;1.90;76.70;;;;;;5083231;28;20329;-88
2022/12/13 01:42:23;;;;;;;;;;;1.90;76.40;;;;;;5056700;28;20419;-88
2022/12/13 01:44:54;;;;;;;;;;;2.00;76.50;;;;;;5074541;28;20459;-88
2022/12/13 01:47:41;;;;;;;;;;;2.00;77.20;;;;;;5074500;28;19944;-88
2022/12/13 01:50:15;;;;;;;;;;;2.00;78.00;;;;;;5087911;28;19953;-88
2022/12/13 01:52:42;;;;;;;;;;;2.00;78.40;;;;;;5094479;28;20017;-88
2022/12/13 01:55:08;;;;;;;;;;;1.90;79.00;;;;;;5092474;28;19952;-87
2022/12/13 01:57:35;;;;;;;;;;;1.90;79.40;;;;;;5085175;28;20003;-88
2022/12/13 02:00:02;;;;;;;;;;;1.90;78.10;;;;;;5082351;28;19957;-88
2022/12/13 02:02:27;;;;;;;;;;;1.80;78.10;;;;;;5094435;28;19943;-88
2022/12/13 02:04:55;;;;;;;;;;;1.80;78.30;;;;;;5094375;28;19988;-87
2022/12/13 02:07:27;;;;;;;;;;;1.70;78.50;;;;;;5094301;28;20023;-88
2022/12/13 02:09:54;;;;;;;;;;;1.60;78.20;;;;;;5062729;28;20308;-88
2022/12/13 02:12:20;;;;;;;;;;;1.70;78.20;;;;;;5073978;28;19939;-88
2022/12/13 02:14:46;;;;;;;;;;;1.70;77.90;;;;;;5073941;28;20459;-88
2022/12/13 02:17:17;;;;;;;;;;;1.70;77.50;;;;;;5073780;28;19957;-88
2022/12/13 02:19:43;;;;;;;;;;;1.60;77.50;;;;;;5083777;28;20043;-88
2022/12/13 02:22:18;;;;;;;;;;;1.60;77.90;;;;;;5100652;22;20012;-88
2022/12/13 02:25:03;;;;;;;;;;;1.60;77.90;;;;;;5093337;28;19950;-88
2022/12/13 02:27:47;;;;;;;;;;;1.70;77.70;;;;;;5093005;28;20425;-88
2022/12/13 02:30:19;;;;;;;;;;;1.70;77.80;;;;;;5090315;28;20486;-88
2022/12/13 02:32:56;;;;;;;;;;;1.90;77.50;;;;;;5073668;28;19987;-88
2022/12/13 02:35:29;;;;;;;;;;;1.90;76.70;;;;;;5055686;28;19963;-88
2022/12/13 02:37:59;;;;;;;;;;;1.90;76.40;;;;;;5055651;28;19960;-88
2022/12/13 02:40:39;;;;;;;;;;;1.80;76.50;;;;;;5089631;28;19948;-87
2022/12/13 02:43:16;;;;;;;;;;;1.80;76.70;;;;;;5093705;28;20296;-88
2022/12/13 02:45:46;;;;;;;;;;;1.70;76.20;;;;;;5093694;28;19938;-88
2022/12/13 02:48:13;;;;;;;;;;;1.70;76.70;;;;;;5093825;28;19948;-88
2022/12/13 02:50:40;;;;;;;;;;;1.70;76.90;;;;;;5092837;28;19949;-88
2022/12/13 02:53:07;;;;;;;;;;;2.00;76.50;;;;;;5093412;28;20000;-88
2022/12/13 02:55:34;;;;;;;;;;;2.10;76.30;;;;;;5092779;28;19948;-88
2022/12/13 02:58:00;;;;;;;;;;;2.10;76.10;;;;;;5092696;28;19969;-88
2022/12/13 03:00:44;;;;;;;;;;;2.20;76.20;;;;;;5092768;28;19943;-88
2022/12/13 03:03:18;;;;;;;;;;;2.00;76.40;;;;;;5093394;28;19937;-88
2022/12/13 03:08:54;;;;;;;;;;;2.40;75.70;;;;;;5092077;28;19951;-88
2022/12/13 03:11:20;;;;;;;;;;;2.50;76.20;;;;;;5092333;28;20000;-88
2022/12/13 03:13:53;;;;;;;;;;;2.30;76.70;;;;;;5093317;28;20000;-88
2022/12/13 03:16:38;;;;;;;;;;;2.20;76.50;;;;;;5075064;28;19962;-88
2022/12/13 03:19:06;;;;;;;;;;;2.00;76.60;;;;;;5092541;28;19938;-88
2022/12/13 03:21:43;;;;;;;;;;;1.90;76.80;;;;;;5093054;28;20384;-88
2022/12/13 03:24:08;;;;;;;;;;;1.90;76.70;;;;;;5076948;28;19995;-88
2022/12/13 03:26:35;;;;;;;;;;;1.90;76.80;;;;;;5093152;28;20308;-88
2022/12/13 03:29:01;;;;;;;;;;;1.90;76.90;;;;;;5092446;28;19985;-88
2022/12/13 03:31:26;;;;;;;;;;;1.90;77.20;;;;;;5093146;28;19979;-88
2022/12/13 03:33:52;;;;;;;;;;;2.20;76.10;;;;;;5094078;28;19936;-89
2022/12/13 03:36:18;;;;;;;;;;;2.50;74.70;;;;;;5097176;28;19963;-88
2022/12/13 03:38:44;;;;;;;;;;;2.60;73.90;;;;;;5096599;28;19937;-89
2022/12/13 03:41:11;;;;;;;;;;;2.70;73.30;;;;;;5096770;28;20385;-88
2022/12/13 03:43:37;;;;;;;;;;;2.80;73.00;;;;;;5097127;28;19940;-88
2022/12/13 03:46:03;;;;;;;;;;;2.90;72.70;;;;;;5097029;28;19940;-88
2022/12/13 03:48:28;;;;;;;;;;;2.90;72.30;;;;;;5097019;28;20430;-88
2022/12/13 03:50:54;;;;;;;;;;;3.00;72.50;;;;;;5096301;28;19948;-88
2022/12/13 03:53:20;;;;;;;;;;;2.90;73.20;;;;;;5096093;28;19960;-88
2022/12/13 03:55:46;;;;;;;;;;;2.50;74.00;;;;;;5095518;28;19998;-88
2022/12/13 03:58:12;;;;;;;;;;;2.40;75.20;;;;;;5078640;28;19944;-88
2022/12/13 04:00:37;;;;;;;;;;;2.20;76.50;;;;;;5095476;28;20301;-88
2022/12/13 04:03:03;;;;;;;;;;;2.10;77.20;;;;;;5096426;28;19951;-88
2022/12/13 04:05:29;;;;;;;;;;;2.10;77.10;;;;;;5096680;28;19938;-88
2022/12/13 04:07:55;;;;;;;;;;;2.10;76.40;;;;;;5096730;28;19983;-88
2022/12/13 04:10:20;;;;;;;;;;;2.20;76.30;;;;;;5095394;28;20054;-88
2022/12/13 04:15:30;;;;;;;;;;;2.50;75.30;;;;;;5096579;28;19987;-88
2022/12/13 04:17:55;;;;;;;;;;;2.70;74.10;;;;;;5096453;28;20008;-88
2022/12/13 04:20:21;;;;;;;;;;;2.90;72.90;;;;;;5094775;28;19976;-88
2022/12/13 04:22:47;;;;;;;;;;;3.00;72.20;;;;;;5088669;28;19975;-88
2022/12/13 04:25:12;;;;;;;;;;;2.90;71.90;;;;;;5085321;28;20401;-88
2022/12/13 04:27:38;;;;;;;;;;;3.00;70.90;;;;;;5078114;28;19992;-88
2022/12/13 04:30:04;;;;;;;;;;;3.00;70.70;;;;;;5077347;28;20381;-88
2022/12/13 04:32:30;;;;;;;;;;;2.80;71.70;;;;;;5096077;28;19937;-88
2022/12/13 04:34:55;;;;;;;;;;;2.70;71.90;;;;;;5096164;28;20324;-88
2022/12/13 04:37:21;;;;;;;;;;;2.70;71.80;;;;;;5077994;28;20359;-88
2022/12/13 04:39:46;;;;;;;;;;;2.70;72.10;;;;;;5077123;28;19949;-88
2022/12/13 04:42:12;;;;;;;;;;;2.80;72.00;;;;;;5096003;28;19941;-87
2022/12/13 04:44:37;;;;;;;;;;;2.70;71.70;;;;;;5095426;28;20355;-87
2022/12/13 04:47:03;;;;;;;;;;;2.60;72.30;;;;;;5095929;28;20607;-88
2022/12/13 04:49:29;;;;;;;;;;;2.50;72.50;;;;;;5095062;28;20044;-88
2022/12/13 04:51:54;;;;;;;;;;;2.50;72.90;;;;;;5095475;28;19936;-88
2022/12/13 04:54:20;;;;;;;;;;;2.50;73.00;;;;;;5076972;28;19981;-88
2022/12/13 04:56:45;;;;;;;;;;;2.50;73.80;;;;;;5077689;28;20330;-88
2022/12/13 04:59:11;;;;;;;;;;;2.40;76.10;;;;;;5094970;28;20073;-88
2022/12/13 05:01:36;;;;;;;;;;;2.40;76.90;;;;;;5095652;28;20018;-88
2022/12/13 05:04:03;;;;;;;;;;;2.10;77.20;;;;;;5095641;28;20303;-88
2022/12/13 05:06:28;;;;;;;;;;;1.90;77.80;;;;;;5095582;28;19940;-88
2022/12/13 05:08:54;;;;;;;;;;;1.80;78.60;;;;;;5094831;28;20341;-88
2022/12/13 05:11:20;;;;;;;;;;;1.70;79.10;;;;;;5094112;28;19945;-88
2022/12/13 05:13:45;;;;;;;;;;;1.70;79.80;;;;;;5095458;28;20302;-88
2022/12/13 05:16:11;;;;;;;;;;;1.90;80.30;;;;;;5095348;28;20298;-88
2022/12/13 05:18:36;;;;;;;;;;;1.90;79.60;;;;;;5095287;28;20492;-88
2022/12/13 05:21:06;;;;;;;;;;;1.90;79.70;;;;;;5093834;28;19976;-88
2022/12/13 05:23:32;;;;;;;;;;;1.90;80.20;;;;;;5081786;28;19948;-88
2022/12/13 05:25:58;;;;;;;;;;;2.10;80.60;;;;;;5090729;28;19953;-88
2022/12/13 05:28:25;;;;;;;;;;;2.20;79.70;;;;;;5074927;28;19943;-88
2022/12/13 05:30:51;;;;;;;;;;;2.40;77.50;;;;;;5090774;28;20413;-87
2022/12/13 05:33:17;;;;;;;;;;;2.60;74.40;;;;;;5095046;28;19969;-88
2022/12/13 05:35:42;;;;;;;;;;;2.60;73.90;;;;;;5095006;28;20318;-88
2022/12/13 05:38:08;;;;;;;;;;;2.50;75.40;;;;;;5094848;28;20426;-88
2022/12/13 05:40:34;;;;;;;;;;;2.40;76.70;;;;;;5093670;28;20292;-88
2022/12/13 05:43:00;;;;;;;;;;;2.50;74.10;;;;;;5094870;28;19938;-88
2022/12/13 05:45:25;;;;;;;;;;;2.40;73.10;;;;;;5094828;28;19943;-88
2022/12/13 05:47:51;;;;;;;;;;;2.50;73.30;;;;;;5094965;28;20031;-88
2022/12/13 05:50:17;;;;;;;;;;;2.50;73.30;;;;;;5093363;28;19948;-88
2022/12/13 05:52:42;;;;;;;;;;;2.50;73.80;;;;;;5071034;28;20328;-88
2022/12/13 05:55:08;;;;;;;;;;;2.50;73.60;;;;;;5081633;28;19965;-88
2022/12/13 05:57:34;;;;;;;;;;;2.50;73.60;;;;;;5091825;28;19970;-88
2022/12/13 05:59:59;;;;;;;;;;;2.50;73.40;;;;;;5093241;28;20410;-88
2022/12/13 06:02:25;;;;;;;;;;;2.50;73.30;;;;;;5094474;28;19945;-88
2022/12/13 06:04:50;;;;;;;;;;;2.50;72.80;;;;;;5093079;28;19950;-87
2022/12/13 06:07:16;;;;;;;;;;;2.50;72.60;;;;;;5092878;28;20036;-88
2022/12/13 06:09:42;;;;;;;;;;;2.60;72.60;;;;;;5092138;28;19954;-88
2022/12/13 06:12:08;;;;;;;;;;;2.60;72.60;;;;;;5093646;28;20532;-88
2022/12/13 06:14:34;;;;;;;;;;;2.60;72.20;;;;;;5093731;28;19961;-88
2022/12/13 06:16:59;;;;;;;;;;;2.60;72.20;;;;;;5093269;28;19962;-88
2022/12/13 06:19:25;;;;;;;;;;;2.70;72.30;;;;;;5092900;28;19943;-88
2022/12/13 06:21:52;;;;;;;;;;;3.00;71.40;;;;;;5093877;28;20309;-88
2022/12/13 06:24:18;;;;;;;;;;;3.10;70.80;;;;;;5093031;28;19953;-87
2022/12/13 06:26:43;;;;;;;;;;;3.10;70.80;;;;;;5086429;28;19983;-88
2022/12/13 06:29:09;;;;;;;;;;;3.10;71.60;;;;;;5092655;28;20405;-87
2022/12/13 06:31:35;;;;;;;;;;;3.10;71.40;;;;;;5086612;28;20028;-88
2022/12/13 06:34:01;;;;;;;;;;;3.20;71.60;;;;;;5090666;28;19951;-87
2022/12/13 06:36:26;;;;;;;;;;;3.10;71.00;;;;;;5071366;28;19996;-88
2022/12/13 06:38:52;;;;;;;;;;;3.00;70.90;;;;;;5093788;28;19944;-88
2022/12/13 06:41:18;;;;;;;;;;;2.90;71.00;;;;;;5088013;28;20048;-88
2022/12/13 06:43:44;;;;;;;;;;;2.80;71.60;;;;;;5092270;28;20457;-88
2022/12/13 06:46:09;;;;;;;;;;;2.70;72.00;;;;;;5088399;28;19945;-88
2022/12/13 06:48:35;;;;;;;;;;;2.70;72.10;;;;;;5086243;28;19949;-88
2022/12/13 06:51:04;;;;;;;;;;;2.70;72.30;;;;;;5086845;28;20401;-88
2022/12/13 06:53:30;;;;;;;;;;;2.70;72.70;;;;;;5088409;28;19966;-89
2022/12/13 06:55:56;;;;;;;;;;;2.70;72.80;;;;;;5087233;28;19940;-88
2022/12/13 06:58:22;;;;;;;;;;;2.90;72.70;;;;;;5078453;28;20286;-88
2022/12/13 07:00:47;;;;;;;;;;;2.90;72.30;;;;;;5086747;28;19943;-88
2022/12/13 07:03:13;;;;;;;;;;;3.10;71.70;;;;;;5089309;28;20000;-88
2022/12/13 07:05:38;;;;;;;;;;;3.20;71.40;;;;;;5089109;28;19975;-87
2022/12/13 07:08:04;;;;;;;;;;;3.20;72.50;;;;;;5088335;28;20058;-88
2022/12/13 07:10:30;;;;;;;;;;;3.30;71.30;;;;;;5086420;28;19951;-87
2022/12/13 07:12:56;;;;;;;;;;;3.10;71.10;;;;;;5072352;28;19939;-87
2022/12/13 07:15:21;;;;;;;;;;;3.00;71.40;;;;;;5087421;28;19986;-87
2022/12/13 07:17:50;;;;;;;;;;;2.90;70.80;;;;;;5070271;28;19965;-87
2022/12/13 07:20:17;;;;;;;;;;;2.90;71.10;;;;;;5087990;28;20005;-88
2022/12/13 07:22:43;;;;;;;;;;;2.90;71.20;;;;;;5086994;28;20437;-88
2022/12/13 07:25:09;;;;;;;;;;;2.90;71.20;;;;;;5083071;28;19945;-87
2022/12/13 07:27:35;;;;;;;;;;;2.90;71.30;;;;;;5088441;28;19947;-88
2022/12/13 07:30:00;;;;;;;;;;;2.90;71.60;;;;;;5090183;28;19951;-89
2022/12/13 07:32:26;;;;;;;;;;;2.90;71.70;;;;;;5090179;28;19953;-88
2022/12/13 07:34:52;;;;;;;;;;;3.10;71.20;;;;;;5085663;28;19945;-87
2022/12/13 07:37:18;;;;;;;;;;;3.20;70.70;;;;;;5089255;28;19958;-87
2022/12/13 07:39:44;;;;;;;;;;;3.30;70.10;;;;;;5090085;28;19975;-87
2022/12/13 07:42:09;;;;;;;;;;;3.20;69.70;;;;;;5091490;28;20397;-87
2022/12/13 07:44:35;;;;;;;;;;;3.00;69.50;;;;;;5083102;28;19985;-87
2022/12/13 07:47:00;;;;;;;;;;;2.90;70.00;;;;;;5068030;28;20410;-86
2022/12/13 07:49:26;;;;;;;;;;;2.80;70.70;;;;;;5086004;28;20699;-87
2022/12/13 07:51:51;;;;;;;;;;;2.80;71.00;;;;;;5085422;28;20365;-87
2022/12/13 07:54:17;;;;;;;;;;;2.90;71.50;;;;;;5080482;28;20566;-87
2022/12/13 07:56:43;;;;;;;;;;;2.90;71.30;;;;;;5085359;28;20386;-87
2022/12/13 07:59:09;;;;;;;;;;;2.90;71.30;;;;;;5089044;28;19972;-87
2022/12/13 08:01:34;;;;;;;;;;;2.90;72.20;;;;;;5090117;28;19990;-87
2022/12/13 08:04:00;;;;;;;;;;;3.10;71.90;;;;;;5081294;28;19957;-86
2022/12/13 08:06:26;;;;;;;;;;;3.20;71.80;;;;;;5085857;28;19950;-87
2022/12/13 08:08:55;;;;;;;;;;;3.30;71.20;;;;;;5080885;28;20008;-87
2022/12/13 08:11:21;;;;;;;;;;;3.50;70.30;;;;;;5087710;28;19942;-88
2022/12/13 08:13:46;;;;;;;;;;;3.70;69.80;;;;;;5086608;28;20324;-87
2022/12/13 08:16:16;;;;;;;;;;;3.80;69.70;;;;;;5091043;28;20046;-87
2022/12/13 08:18:43;;;;;;;;;;;3.90;69.30;;;;;;5089655;28;19955;-87
2022/12/13 08:21:09;;;;;;;;;;;3.90;68.60;;;;;;5067385;28;20445;-87
2022/12/13 08:23:34;;;;;;;;;;;3.70;69.40;;;;;;5092835;28;19961;-88
2022/12/13 08:26:01;;;;;;;;;;;3.70;69.60;;;;;;5092969;28;20385;-87
2022/12/13 08:28:27;;;;;;;;;;;3.50;70.10;;;;;;5091351;28;19942;-87
2022/12/13 08:30:52;;;;;;;;;;;3.30;69.80;;;;;;5076194;28;19946;-87
2022/12/13 08:33:18;;;;;;;;;;;3.20;70.00;;;;;;5091470;28;19945;-87
2022/12/13 08:35:43;;;;;;;;;;;3.20;69.90;;;;;;5089089;28;19948;-88
2022/12/13 08:38:09;;;;;;;;;;;3.30;70.40;;;;;;5086315;28;19953;-88
2022/12/13 08:40:35;;;;;;;;;;;3.30;70.70;;;;;;5087319;28;19964;-87
2022/12/13 08:43:01;;;;;;;;;;;3.30;70.70;;;;;;5067138;28;20716;-87
2022/12/13 08:45:27;;;;;;;;;;;3.30;70.50;;;;;;5089684;28;19962;-88
2022/12/13 08:47:53;;;;;;;;;;;3.40;70.60;;;;;;5077639;28;19947;-88
2022/12/13 08:50:18;;;;;;;;;;;3.30;70.80;;;;;;5088529;28;20482;-88
2022/12/13 08:52:44;;;;;;;;;;;3.50;70.60;;;;;;5083721;28;19964;-88
2022/12/13 08:55:11;;;;;;;;;;;3.50;70.60;;;;;;5084554;28;20002;-87
2022/12/13 08:57:36;;;;;;;;;;;3.70;71.50;;;;;;5088158;28;20010;-88
2022/12/13 09:00:06;;;;;;;;;;;3.70;72.70;;;;;;5083691;28;20019;-87
2022/12/13 09:02:32;;;;;;;;;;;3.60;71.30;;;;;;5086728;28;19941;-88
2022/12/13 09:04:57;;;;;;;;;;;3.50;72.80;;;;;;5080467;28;20394;-88
2022/12/13 09:07:23;;;;;;;;;;;3.50;75.10;;;;;;5061962;28;19995;-87
2022/12/13 09:09:48;;;;;;;;;;;3.50;74.50;;;;;;5080933;28;19957;-88
2022/12/13 09:12:14;;;;;;;;;;;3.40;73.50;;;;;;5088593;28;19944;-88
2022/12/13 09:14:39;;;;;;;;;;;3.50;74.10;;;;;;5088715;28;19966;-88
2022/12/13 09:17:05;;;;;;;;;;;3.50;73.80;;;;;;5088066;28;19953;-88
2022/12/13 09:19:31;;;;;;;;;;;3.60;72.80;;;;;;5071778;28;19990;-88
2022/12/13 09:21:56;;;;;;;;;;;3.70;69.90;;;;;;5089060;28;20007;-88
2022/12/13 09:24:22;;;;;;;;;;;3.80;70.90;;;;;;5085652;28;19941;-87
2022/12/13 09:26:48;;;;;;;;;;;3.80;72.00;;;;;;5088210;28;19955;-87
2022/12/13 09:29:15;;;;;;;;;;;3.80;72.60;;;;;;5089855;28;19941;-88
2022/12/13 09:31:41;;;;;;;;;;;3.80;69.30;;;;;;5088744;28;20414;-88
2022/12/13 09:34:07;;;;;;;;;;;3.80;68.80;;;;;;5084153;28;20394;-88
2022/12/13 09:36:33;;;;;;;;;;;4.10;69.30;;;;;;5088686;28;19966;-88
2022/12/13 09:38:58;;;;;;;;;;;4.30;69.60;;;;;;5090197;28;19944;-88
2022/12/13 09:41:27;;;;;;;;;;;4.40;70.20;;;;;;5085521;28;19943;-88
2022/12/13 09:43:56;;;;;;;;;;;4.50;70.20;;;;;;5085235;28;19949;-88
2022/12/13 09:46:25;;;;;;;;;;;4.50;68.10;;;;;;5086471;28;19952;-88
2022/12/13 09:48:52;;;;;;;;;;;4.20;68.40;;;;;;5088572;28;19941;-88
2022/12/13 09:51:18;;;;;;;;;;;4.20;70.50;;;;;;5090835;28;20640;-88
2022/12/13 09:53:45;;;;;;;;;;;4.20;70.70;;;;;;5091376;28;19975;-88
2022/12/13 09:56:11;;;;;;;;;;;4.20;69.90;;;;;;5085683;28;19953;-88
2022/12/13 09:58:37;;;;;;;;;;;4.20;69.90;;;;;;5089273;28;19941;-88
2022/12/13 10:01:04;;;;;;;;;;;4.20;69.30;;;;;;5072829;28;20397;-88
2022/12/13 10:03:29;;;;;;;;;;;4.10;70.20;;;;;;5083500;28;19952;-88
2022/12/13 10:05:59;;;;;;;;;;;4.40;70.70;;;;;;5090283;28;19973;-88
2022/12/13 10:08:34;;;;;;;;;;;4.50;70.10;;;;;;5086465;28;19945;-88
2022/12/13 10:11:00;;;;;;;;;;;4.60;69.20;;;;;;5086575;28;19950;-87
2022/12/13 10:13:25;;;;;;;;;;;4.80;68.50;;;;;;5083502;28;20422;-87
2022/12/13 10:15:54;;;;;;;;;;;4.70;67.80;;;;;;5083986;28;19944;-87
2022/12/13 10:18:25;;;;;;;;;;;4.50;69.30;;;;;;5086280;28;19963;-86
2022/12/13 10:20:51;;;;;;;;;;;4.40;69.60;;;;;;5091789;22;19991;-87
2022/12/13 10:23:17;;;;;;;;;;;4.30;70.80;;;;;;5070733;28;20492;-87
2022/12/13 10:26:03;;;;;;;;;;;4.30;70.20;;;;;;5083194;28;20035;-87
2022/12/13 10:28:30;;;;;;;;;;;4.20;70.60;;;;;;5087261;28;20437;-87
2022/12/13 10:30:58;;;;;;;;;;;4.20;70.70;;;;;;5065349;28;20413;-86
2022/12/13 10:33:31;;;;;;;;;;;4.20;70.10;;;;;;5080772;28;19942;-87
2022/12/13 10:36:28;;;;;;;;;;;4.30;66.80;;;;;;5085476;28;19939;-87
2022/12/13 10:38:54;;;;;;;;;;;4.30;66.80;;;;;;5080632;28;20474;-85
2022/12/13 10:41:28;;;;;;;;;;;4.60;65.90;;;;;;5079728;28;20034;-86
2022/12/13 10:44:06;;;;;;;;;;;4.80;65.20;;;;;;5085010;28;19947;-85
2022/12/13 10:46:31;;;;;;;;;;;5.00;64.40;;;;;;5090686;28;19956;-85
2022/12/13 10:48:57;;;;;;;;;;;5.10;59.00;;;;;;5084841;28;19945;-85
2022/12/13 10:51:23;;;;;;;;;;;5.00;60.00;;;;;;5082221;28;20035;-85
2022/12/13 10:53:50;;;;;;;;;;;4.80;60.10;;;;;;5082908;28;20060;-85
2022/12/13 10:56:16;;;;;;;;;;;4.80;60.50;;;;;;5088960;28;19949;-85
2022/12/13 10:58:43;;;;;;;;;;;4.80;59.70;;;;;;5085710;28;19947;-85
2022/12/13 11:01:10;;;;;;;;;;;4.80;58.10;;;;;;5090290;28;20042;-85
2022/12/13 11:03:36;;;;;;;;;;;4.80;57.60;;;;;;5087249;28;20032;-85
2022/12/13 11:06:03;;;;;;;;;;;4.90;56.30;;;;;;5080042;28;20684;-85
2022/12/13 11:08:29;;;;;;;;;;;4.70;56.30;;;;;;5078101;28;20090;-85
2022/12/13 11:10:58;;;;;;;;;;;4.80;55.70;;;;;;5083506;28;20390;-85
2022/12/13 11:13:30;;;;;;;;;;;4.90;55.90;;;;;;5075102;28;20004;-85
2022/12/13 11:15:55;;;;;;;;;;;4.90;56.20;;;;;;5088237;28;19953;-85
2022/12/13 11:18:23;;;;;;;;;;;4.90;56.60;;;;;;5088857;28;20050;-85
2022/12/13 11:21:08;;;;;;;;;;;4.90;55.30;;;;;;5081743;28;19947;-85
2022/12/13 11:23:36;;;;;;;;;;;5.20;54.70;;;;;;5086928;28;19947;-85
2022/12/13 11:26:08;;;;;;;;;;;5.20;55.80;;;;;;5092073;28;19947;-85
2022/12/13 11:28:52;;;;;;;;;;;5.20;56.50;;;;;;5089645;28;20478;-85
2022/12/13 11:31:23;;;;;;;;;;;5.10;57.20;;;;;;5080789;28;19952;-85
2022/12/13 11:34:27;;;;;;;;;;;5.20;57.50;;;;;;5083814;28;20445;-85
2022/12/13 11:37:00;;;;;;;;;;;5.10;56.70;;;;;;5006995;28;20440;-85
2022/12/13 11:39:33;;;;;;;;;;;5.10;55.90;;;;;;5010375;28;19998;-85
2022/12/13 11:42:02;;;;;;;;;;;5.00;55.30;;;;;;5048219;28;19947;-85
2022/12/13 11:44:35;;;;;;;;;;;5.00;55.70;;;;;;5082367;28;19972;-85
2022/12/13 11:47:01;;;;;;;;;;;5.00;54.40;;;;;;5073858;28;19949;-87
2022/12/13 11:49:35;;;;;;;;;;;5.10;55.80;;;;;;5092948;28;19946;-86
2022/12/13 11:52:12;;;;;;;;;;;5.40;55.60;;;;;;5079588;28;19965;-86
2022/12/13 11:54:40;;;;;;;;;;;5.60;54.80;;;;;;5088858;28;19949;-86
2022/12/13 11:57:12;;;;;;;;;;;5.60;54.30;;;;;;5094922;28;20054;-85
2022/12/13 11:59:48;;;;;;;;;;;5.50;52.90;;;;;;5094937;28;19951;-85
2022/12/13 12:02:20;;;;;;;;;;;5.40;54.30;;;;;;5097052;28;20024;-85
2022/12/13 12:04:53;;;;;;;;;;;5.40;54.50;;;;;;5096161;28;19949;-85
2022/12/13 12:07:20;;;;;;;;;;;5.30;55.10;;;;;;5078580;28;20310;-85
2022/12/13 12:09:57;;;;;;;;;;;5.30;55.20;;;;;;5094322;28;19936;-85
2022/12/13 12:12:30;;;;;;;;;;;5.20;54.30;;;;;;5076215;28;20019;-85
2022/12/13 12:14:59;;;;;;;;;;;5.10;54.80;;;;;;5093914;28;19946;-85
2022/12/13 12:17:25;;;;;;;;;;;5.10;54.00;;;;;;5096428;28;19980;-85
2022/12/13 12:19:55;;;;;;;;;;;5.10;53.00;;;;;;5090390;28;20015;-85
2022/12/13 12:22:34;;;;;;;;;;;5.20;53.30;;;;;;5075718;28;19976;-85
2022/12/13 12:24:59;;;;;;;;;;;5.20;52.60;;;;;;5068235;28;20358;-86
2022/12/13 12:27:29;;;;;;;;;;;5.40;52.80;;;;;;5066722;28;19938;-85
2022/12/13 12:30:26;;;;;;;;;;;5.50;52.70;;;;;;5087097;28;19957;-85
2022/12/13 12:33:11;;;;;;;;;;;5.40;51.20;;;;;;5069222;28;19943;-85
2022/12/13 12:35:55;;;;;;;;;;;5.40;54.30;;;;;;5075865;28;20011;-85
2022/12/13 12:38:39;;;;;;;;;;;5.50;53.40;;;;;;5084214;28;20413;-85
2022/12/13 12:41:04;;;;;;;;;;;5.50;52.80;;;;;;5085040;28;20008;-85
2022/12/13 12:43:31;;;;;;;;;;;5.40;51.50;;;;;;5085602;28;19946;-85
2022/12/13 12:46:15;;;;;;;;;;;5.50;51.30;;;;;;5095101;28;19973;-85
2022/12/13 12:49:02;;;;;;;;;;;5.70;51.50;;;;;;5094311;28;20421;-85
2022/12/13 12:51:46;;;;;;;;;;;5.90;52.10;;;;;;5063837;28;19944;-85
2022/12/13 12:54:31;;;;;;;;;;;5.90;51.90;;;;;;5090949;28;19945;-85
2022/12/13 12:57:23;;;;;;;;;;;6.00;50.30;;;;;;5085130;28;19964;-85
2022/12/13 12:59:49;;;;;;;;;;;5.90;51.00;;;;;;5038963;28;19945;-85
2022/12/13 13:02:24;;;;;;;;;;;5.70;50.10;;;;;;5084696;28;20044;-85
2022/12/13 13:04:55;;;;;;;;;;;5.50;49.90;;;;;;5084760;28;19993;-85
2022/12/13 13:07:24;;;;;;;;;;;5.40;51.80;;;;;;5084801;28;20007;-85
2022/12/13 13:09:53;;;;;;;;;;;5.30;51.50;;;;;;5085206;28;19942;-85
2022/12/13 13:12:19;;;;;;;;;;;5.20;52.00;;;;;;5090254;28;19989;-85
2022/12/13 13:14:44;;;;;;;;;;;5.30;52.40;;;;;;5087414;28;20335;-85
2022/12/13 13:17:16;;;;;;;;;;;5.40;53.60;;;;;;5091727;28;19974;-85
2022/12/13 13:19:48;;;;;;;;;;;5.50;55.10;;;;;;5089117;28;20002;-85
2022/12/13 13:22:26;;;;;;;;;;;5.70;56.70;;;;;;5082322;28;20005;-85
2022/12/13 13:25:07;;;;;;;;;;;5.70;57.70;;;;;;5078988;28;19954;-85
2022/12/13 13:27:40;;;;;;;;;;;5.70;57.50;;;;;;5093393;28;19943;-85
2022/12/13 13:30:22;;;;;;;;;;;5.80;57.10;;;;;;5087408;28;19963;-85
2022/12/13 13:32:48;;;;;;;;;;;5.50;58.50;;;;;;5082387;28;20037;-85
2022/12/13 13:35:30;;;;;;;;;;;5.30;59.50;;;;;;5089396;28;19952;-85
2022/12/13 13:37:56;;;;;;;;;;;5.20;60.50;;;;;;5082097;28;20011;-85
2022/12/13 13:40:33;;;;;;;;;;;4.90;61.80;;;;;;5085793;28;20003;-85
2022/12/13 13:43:04;;;;;;;;;;;4.80;63.70;;;;;;5077583;28;19949;-85
2022/12/13 13:45:50;;;;;;;;;;;4.70;64.00;;;;;;5083509;28;19945;-85
2022/12/13 13:48:18;;;;;;;;;;;4.70;63.60;;;;;;5092146;28;20106;-85
2022/12/13 13:50:44;;;;;;;;;;;5.00;62.00;;;;;;5088129;28;19947;-85
2022/12/13 13:53:28;;;;;;;;;;;5.10;60.80;;;;;;5093694;28;19969;-85
2022/12/13 13:55:59;;;;;;;;;;;5.10;61.20;;;;;;5091160;28;20076;-85
2022/12/13 13:58:43;;;;;;;;;;;5.10;61.90;;;;;;5070369;28;20424;-85
2022/12/13 14:01:27;;;;;;;;;;;5.10;62.40;;;;;;5085287;28;19944;-85
2022/12/13 14:03:55;;;;;;;;;;;5.10;62.70;;;;;;5083883;28;19970;-85
2022/12/13 14:06:30;;;;;;;;;;;5.00;62.60;;;;;;5085517;28;19942;-85
2022/12/13 14:09:04;;;;;;;;;;;5.00;63.40;;;;;;5088836;28;19947;-85
2022/12/13 14:11:30;;;;;;;;;;;4.90;64.30;;;;;;5084856;28;19946;-85
2022/12/13 14:14:13;;;;;;;;;;;4.70;64.20;;;;;;5078038;28;19951;-85
2022/12/13 14:16:58;;;;;;;;;;;4.70;63.60;;;;;;5076680;28;20191;-85
2022/12/13 14:19:42;;;;;;;;;;;4.70;63.40;;;;;;5090855;28;19944;-85
2022/12/13 14:22:26;;;;;;;;;;;4.70;62.90;;;;;;5086174;28;19990;-85
2022/12/13 14:25:01;;;;;;;;;;;4.70;63.40;;;;;;5088674;28;19943;-85
2022/12/13 14:27:26;;;;;;;;;;;4.90;62.20;;;;;;5088290;28;19939;-85
2022/12/13 14:29:52;;;;;;;;;;;5.10;61.70;;;;;;5090329;28;19951;-85
2022/12/13 14:32:18;;;;;;;;;;;5.20;61.80;;;;;;5087531;28;19946;-85
2022/12/13 14:34:43;;;;;;;;;;;5.30;61.30;;;;;;5089998;28;20455;-85
2022/12/13 14:37:29;;;;;;;;;;;5.40;60.40;;;;;;5085842;28;19968;-85
2022/12/13 14:39:55;;;;;;;;;;;5.40;59.70;;;;;;5085741;28;19981;-85
2022/12/13 14:42:23;;;;;;;;;;;5.40;61.70;;;;;;5086074;28;19940;-85
2022/12/13 14:44:49;;;;;;;;;;;5.30;62.40;;;;;;5089672;28;20324;-85